sensor_id;sensor_type;location;lat;lon;timestamp;P1;durP1;ratioP1;P2;durP2;ratioP2
62610;SDS011;48683;48.084;17.272;2023-02-01T00:01:17;5.85;;;2.85;;
62610;SDS011;48683;48.084;17.272;2023-02-01T00:03:42;2.80;;;2.22;;
62610;SDS011;48683;48.084;17.272;2023-02-01T00:06:07;3.63;;;2.70;;
62610;SDS011;48683;48.084;17.272;2023-02-01T00:08:33;5.35;;;2.85;;
62610;SDS011;48683;48.084;17.272;2023-02-01T00:11:03;2.80;;;2.50;;
62610;SDS011;48683;48.084;17.272;2023-02-01T00:13:33;2.97;;;2.65;;
62610;SDS011;48683;48.084;17.272;2023-02-01T00:16:05;2.58;;;2.20;;
62610;SDS011;48683;48.084;17.272;2023-02-01T00:18:37;3.63;;;2.40;;
62610;SDS011;48683;48.084;17.272;2023-02-01T00:21:03;2.88;;;2.40;;
62610;SDS011;48683;48.084;17.272;2023-02-01T00:23:31;3.47;;;2.38;;
62610;SDS011;48683;48.084;17.272;2023-02-01T00:26:02;2.78;;;2.10;;
62610;SDS011;48683;48.084;17.272;2023-02-01T00:28:29;3.75;;;2.20;;
62610;SDS011;48683;48.084;17.272;2023-02-01T00:30:57;3.05;;;2.10;;
62610;SDS011;48683;48.084;17.272;2023-02-01T00:33:27;2.40;;;1.98;;
62610;SDS011;48683;48.084;17.272;2023-02-01T00:35:58;2.83;;;2.10;;
62610;SDS011;48683;48.084;17.272;2023-02-01T00:38:24;1.80;;;1.60;;
62610;SDS011;48683;48.084;17.272;2023-02-01T00:40:50;3.42;;;2.25;;
62610;SDS011;48683;48.084;17.272;2023-02-01T00:43:16;1.70;;;1.60;;
62610;SDS011;48683;48.084;17.272;2023-02-01T00:45:41;3.05;;;1.67;;
62610;SDS011;48683;48.084;17.272;2023-02-01T00:48:07;2.47;;;2.10;;
62610;SDS011;48683;48.084;17.272;2023-02-01T00:50:32;3.20;;;2.03;;
62610;SDS011;48683;48.084;17.272;2023-02-01T00:52:57;2.17;;;1.98;;
62610;SDS011;48683;48.084;17.272;2023-02-01T00:55:23;3.33;;;2.10;;
62610;SDS011;48683;48.084;17.272;2023-02-01T00:57:48;3.47;;;2.40;;
62610;SDS011;48683;48.084;17.272;2023-02-01T01:00:13;2.50;;;1.92;;
62610;SDS011;48683;48.084;17.272;2023-02-01T01:02:40;4.63;;;1.90;;
62610;SDS011;48683;48.084;17.272;2023-02-01T01:05:06;2.65;;;1.67;;
62610;SDS011;48683;48.084;17.272;2023-02-01T01:07:31;2.67;;;1.70;;
62610;SDS011;48683;48.084;17.272;2023-02-01T01:09:57;2.33;;;2.13;;
62610;SDS011;48683;48.084;17.272;2023-02-01T01:12:22;2.63;;;1.95;;
62610;SDS011;48683;48.084;17.272;2023-02-01T01:14:47;2.70;;;1.90;;
62610;SDS011;48683;48.084;17.272;2023-02-01T01:17:13;2.90;;;2.60;;
62610;SDS011;48683;48.084;17.272;2023-02-01T01:19:38;2.00;;;1.90;;
62610;SDS011;48683;48.084;17.272;2023-02-01T01:22:03;4.03;;;3.72;;
62610;SDS011;48683;48.084;17.272;2023-02-01T01:24:29;4.45;;;3.97;;
62610;SDS011;48683;48.084;17.272;2023-02-01T01:26:54;4.60;;;4.20;;
62610;SDS011;48683;48.084;17.272;2023-02-01T01:29:20;8.60;;;7.70;;
62610;SDS011;48683;48.084;17.272;2023-02-01T01:31:45;3.60;;;2.92;;
62610;SDS011;48683;48.084;17.272;2023-02-01T01:34:10;2.63;;;2.42;;
62610;SDS011;48683;48.084;17.272;2023-02-01T01:36:36;3.42;;;2.42;;
62610;SDS011;48683;48.084;17.272;2023-02-01T01:39:01;1.92;;;1.77;;
62610;SDS011;48683;48.084;17.272;2023-02-01T01:41:30;5.97;;;3.42;;
62610;SDS011;48683;48.084;17.272;2023-02-01T01:43:58;4.20;;;3.80;;
62610;SDS011;48683;48.084;17.272;2023-02-01T01:48:53;4.22;;;3.90;;
62610;SDS011;48683;48.084;17.272;2023-02-01T01:51:30;6.70;;;6.10;;
62610;SDS011;48683;48.084;17.272;2023-02-01T01:54:08;5.50;;;5.03;;
62610;SDS011;48683;48.084;17.272;2023-02-01T01:56:40;8.02;;;7.32;;
62610;SDS011;48683;48.084;17.272;2023-02-01T01:59:06;7.75;;;6.95;;
62610;SDS011;48683;48.084;17.272;2023-02-01T02:01:32;6.43;;;5.90;;
62610;SDS011;48683;48.084;17.272;2023-02-01T02:03:58;6.30;;;5.70;;
62610;SDS011;48683;48.084;17.272;2023-02-01T02:09:00;3.40;;;3.10;;
62610;SDS011;48683;48.084;17.272;2023-02-01T02:11:25;4.40;;;4.00;;
62610;SDS011;48683;48.084;17.272;2023-02-01T02:13:52;3.42;;;2.60;;
62610;SDS011;48683;48.084;17.272;2023-02-01T02:22:12;2.42;;;2.00;;
62610;SDS011;48683;48.084;17.272;2023-02-01T02:27:56;2.53;;;2.33;;
62610;SDS011;48683;48.084;17.272;2023-02-01T02:33:47;2.20;;;1.90;;
62610;SDS011;48683;48.084;17.272;2023-02-01T02:36:38;5.35;;;2.88;;
62610;SDS011;48683;48.084;17.272;2023-02-01T02:39:34;4.25;;;3.85;;
62610;SDS011;48683;48.084;17.272;2023-02-01T02:42:13;2.63;;;2.33;;
62610;SDS011;48683;48.084;17.272;2023-02-01T02:45:08;3.97;;;3.38;;
62610;SDS011;48683;48.084;17.272;2023-02-01T02:56:35;5.25;;;4.75;;
62610;SDS011;48683;48.084;17.272;2023-02-01T02:59:21;8.30;;;7.47;;
62610;SDS011;48683;48.084;17.272;2023-02-01T03:02:09;6.10;;;5.50;;
62610;SDS011;48683;48.084;17.272;2023-02-01T03:04:54;5.53;;;3.47;;
62610;SDS011;48683;48.084;17.272;2023-02-01T03:13:11;7.05;;;5.53;;
62610;SDS011;48683;48.084;17.272;2023-02-01T03:15:43;5.20;;;4.68;;
62610;SDS011;48683;48.084;17.272;2023-02-01T03:18:18;4.47;;;3.97;;
62610;SDS011;48683;48.084;17.272;2023-02-01T03:20:49;4.25;;;3.70;;
62610;SDS011;48683;48.084;17.272;2023-02-01T03:23:19;7.88;;;7.18;;
62610;SDS011;48683;48.084;17.272;2023-02-01T03:25:48;6.05;;;5.47;;
62610;SDS011;48683;48.084;17.272;2023-02-01T03:28:16;3.22;;;2.60;;
62610;SDS011;48683;48.084;17.272;2023-02-01T03:30:46;3.40;;;2.33;;
62610;SDS011;48683;48.084;17.272;2023-02-01T03:33:13;2.83;;;2.53;;
62610;SDS011;48683;48.084;17.272;2023-02-01T03:38:38;2.38;;;1.92;;
62610;SDS011;48683;48.084;17.272;2023-02-01T03:43:34;3.55;;;3.25;;
62610;SDS011;48683;48.084;17.272;2023-02-01T03:46:35;2.97;;;2.17;;
62610;SDS011;48683;48.084;17.272;2023-02-01T03:49:06;5.30;;;4.30;;
62610;SDS011;48683;48.084;17.272;2023-02-01T03:51:35;5.13;;;4.65;;
62610;SDS011;48683;48.084;17.272;2023-02-01T03:54:03;7.30;;;6.70;;
62610;SDS011;48683;48.084;17.272;2023-02-01T03:56:30;7.45;;;6.03;;
62610;SDS011;48683;48.084;17.272;2023-02-01T03:58:59;7.25;;;6.55;;
62610;SDS011;48683;48.084;17.272;2023-02-01T04:01:28;8.23;;;7.53;;
62610;SDS011;48683;48.084;17.272;2023-02-01T04:03:55;7.57;;;6.97;;
62610;SDS011;48683;48.084;17.272;2023-02-01T04:06:21;4.47;;;4.07;;
62610;SDS011;48683;48.084;17.272;2023-02-01T04:08:47;5.75;;;5.25;;
62610;SDS011;48683;48.084;17.272;2023-02-01T04:11:12;7.60;;;7.00;;
62610;SDS011;48683;48.084;17.272;2023-02-01T04:13:37;7.25;;;6.65;;
62610;SDS011;48683;48.084;17.272;2023-02-01T04:16:03;7.68;;;7.05;;
62610;SDS011;48683;48.084;17.272;2023-02-01T04:18:28;8.32;;;7.57;;
62610;SDS011;48683;48.084;17.272;2023-02-01T04:20:54;6.80;;;5.75;;
62610;SDS011;48683;48.084;17.272;2023-02-01T04:23:19;6.47;;;5.88;;
62610;SDS011;48683;48.084;17.272;2023-02-01T04:25:45;7.07;;;6.47;;
62610;SDS011;48683;48.084;17.272;2023-02-01T04:28:11;6.88;;;6.32;;
62610;SDS011;48683;48.084;17.272;2023-02-01T04:30:36;7.07;;;6.47;;
62610;SDS011;48683;48.084;17.272;2023-02-01T04:33:01;7.15;;;6.28;;
62610;SDS011;48683;48.084;17.272;2023-02-01T04:35:30;6.25;;;5.65;;
62610;SDS011;48683;48.084;17.272;2023-02-01T04:37:55;6.32;;;5.68;;
62610;SDS011;48683;48.084;17.272;2023-02-01T04:40:21;2.72;;;2.50;;
62610;SDS011;48683;48.084;17.272;2023-02-01T04:42:46;5.28;;;4.07;;
62610;SDS011;48683;48.084;17.272;2023-02-01T04:45:11;6.88;;;6.28;;
62610;SDS011;48683;48.084;17.272;2023-02-01T04:47:38;6.65;;;6.05;;
62610;SDS011;48683;48.084;17.272;2023-02-01T04:50:03;8.10;;;7.35;;
62610;SDS011;48683;48.084;17.272;2023-02-01T04:52:30;6.85;;;6.15;;
62610;SDS011;48683;48.084;17.272;2023-02-01T04:54:56;6.88;;;6.28;;
62610;SDS011;48683;48.084;17.272;2023-02-01T04:57:24;7.00;;;6.40;;
62610;SDS011;48683;48.084;17.272;2023-02-01T04:59:49;9.02;;;6.30;;
62610;SDS011;48683;48.084;17.272;2023-02-01T05:02:15;6.25;;;5.10;;
62610;SDS011;48683;48.084;17.272;2023-02-01T05:04:40;6.13;;;4.60;;
62610;SDS011;48683;48.084;17.272;2023-02-01T05:07:05;2.67;;;2.17;;
62610;SDS011;48683;48.084;17.272;2023-02-01T05:09:31;3.38;;;1.60;;
62610;SDS011;48683;48.084;17.272;2023-02-01T05:11:56;2.65;;;1.60;;
62610;SDS011;48683;48.084;17.272;2023-02-01T05:15:00;5.05;;;1.40;;
62610;SDS011;48683;48.084;17.272;2023-02-01T05:17:25;2.13;;;1.30;;
62610;SDS011;48683;48.084;17.272;2023-02-01T05:19:50;2.15;;;1.55;;
62610;SDS011;48683;48.084;17.272;2023-02-01T05:22:16;5.97;;;1.65;;
62610;SDS011;48683;48.084;17.272;2023-02-01T05:24:41;2.72;;;1.77;;
62610;SDS011;48683;48.084;17.272;2023-02-01T05:27:06;3.50;;;1.70;;
62610;SDS011;48683;48.084;17.272;2023-02-01T05:29:32;2.25;;;1.55;;
62610;SDS011;48683;48.084;17.272;2023-02-01T05:31:57;4.75;;;1.73;;
62610;SDS011;48683;48.084;17.272;2023-02-01T05:34:22;6.40;;;1.83;;
62610;SDS011;48683;48.084;17.272;2023-02-01T05:36:48;3.78;;;1.95;;
62610;SDS011;48683;48.084;17.272;2023-02-01T05:39:13;5.13;;;1.70;;
62610;SDS011;48683;48.084;17.272;2023-02-01T05:41:39;2.25;;;1.90;;
62610;SDS011;48683;48.084;17.272;2023-02-01T05:44:04;5.28;;;2.25;;
62610;SDS011;48683;48.084;17.272;2023-02-01T05:46:32;3.72;;;1.98;;
62610;SDS011;48683;48.084;17.272;2023-02-01T05:48:58;6.40;;;2.28;;
62610;SDS011;48683;48.084;17.272;2023-02-01T05:51:23;2.83;;;2.17;;
62610;SDS011;48683;48.084;17.272;2023-02-01T05:53:48;4.30;;;2.78;;
62610;SDS011;48683;48.084;17.272;2023-02-01T05:56:14;6.65;;;5.95;;
62610;SDS011;48683;48.084;17.272;2023-02-01T05:58:39;7.30;;;6.60;;
62610;SDS011;48683;48.084;17.272;2023-02-01T06:01:04;6.35;;;5.53;;
62610;SDS011;48683;48.084;17.272;2023-02-01T06:03:30;7.35;;;6.65;;
62610;SDS011;48683;48.084;17.272;2023-02-01T06:05:55;7.97;;;7.18;;
62610;SDS011;48683;48.084;17.272;2023-02-01T06:08:21;9.52;;;8.52;;
62610;SDS011;48683;48.084;17.272;2023-02-01T06:10:46;9.15;;;7.72;;
62610;SDS011;48683;48.084;17.272;2023-02-01T06:13:11;13.80;;;7.35;;
62610;SDS011;48683;48.084;17.272;2023-02-01T06:15:37;6.25;;;4.63;;
62610;SDS011;48683;48.084;17.272;2023-02-01T06:18:03;5.10;;;3.90;;
62610;SDS011;48683;48.084;17.272;2023-02-01T06:20:29;6.78;;;5.32;;
62610;SDS011;48683;48.084;17.272;2023-02-01T06:22:54;26.33;;;21.70;;
62610;SDS011;48683;48.084;17.272;2023-02-01T06:25:19;12.35;;;11.07;;
62610;SDS011;48683;48.084;17.272;2023-02-01T06:27:46;5.70;;;4.20;;
62610;SDS011;48683;48.084;17.272;2023-02-01T06:30:12;5.38;;;3.55;;
62610;SDS011;48683;48.084;17.272;2023-02-01T06:32:38;4.75;;;3.00;;
62610;SDS011;48683;48.084;17.272;2023-02-01T06:35:05;4.45;;;2.97;;
62610;SDS011;48683;48.084;17.272;2023-02-01T06:37:32;5.85;;;3.58;;
62610;SDS011;48683;48.084;17.272;2023-02-01T06:39:58;6.25;;;4.55;;
62610;SDS011;48683;48.084;17.272;2023-02-01T06:42:23;9.73;;;8.82;;
62610;SDS011;48683;48.084;17.272;2023-02-01T06:44:49;10.00;;;9.07;;
62610;SDS011;48683;48.084;17.272;2023-02-01T06:47:14;11.43;;;10.23;;
62610;SDS011;48683;48.084;17.272;2023-02-01T06:49:39;7.80;;;5.68;;
62610;SDS011;48683;48.084;17.272;2023-02-01T06:52:05;7.32;;;6.70;;
62610;SDS011;48683;48.084;17.272;2023-02-01T06:54:30;10.85;;;9.80;;
62610;SDS011;48683;48.084;17.272;2023-02-01T06:56:58;11.73;;;10.52;;
62610;SDS011;48683;48.084;17.272;2023-02-01T06:59:24;13.73;;;12.45;;
62610;SDS011;48683;48.084;17.272;2023-02-01T07:01:49;15.35;;;13.75;;
62610;SDS011;48683;48.084;17.272;2023-02-01T07:04:15;13.73;;;12.43;;
62610;SDS011;48683;48.084;17.272;2023-02-01T07:06:40;12.63;;;11.43;;
62610;SDS011;48683;48.084;17.272;2023-02-01T07:09:06;10.15;;;9.15;;
62610;SDS011;48683;48.084;17.272;2023-02-01T07:11:31;11.52;;;10.32;;
62610;SDS011;48683;48.084;17.272;2023-02-01T07:13:57;8.00;;;7.18;;
62610;SDS011;48683;48.084;17.272;2023-02-01T07:16:23;6.22;;;5.57;;
62610;SDS011;48683;48.084;17.272;2023-02-01T07:18:49;7.43;;;6.07;;
62610;SDS011;48683;48.084;17.272;2023-02-01T07:21:16;4.72;;;4.10;;
62610;SDS011;48683;48.084;17.272;2023-02-01T07:23:42;4.28;;;3.88;;
62610;SDS011;48683;48.084;17.272;2023-02-01T07:26:09;6.97;;;3.88;;
62610;SDS011;48683;48.084;17.272;2023-02-01T07:28:37;7.30;;;5.32;;
62610;SDS011;48683;48.084;17.272;2023-02-01T07:31:09;4.18;;;3.78;;
62610;SDS011;48683;48.084;17.272;2023-02-01T07:33:36;5.65;;;3.70;;
62610;SDS011;48683;48.084;17.272;2023-02-01T07:36:03;5.95;;;2.88;;
62610;SDS011;48683;48.084;17.272;2023-02-01T07:38:30;3.67;;;2.65;;
62610;SDS011;48683;48.084;17.272;2023-02-01T07:40:59;5.32;;;3.08;;
62610;SDS011;48683;48.084;17.272;2023-02-01T07:43:26;3.75;;;3.03;;
62610;SDS011;48683;48.084;17.272;2023-02-01T07:45:52;3.67;;;3.00;;
62610;SDS011;48683;48.084;17.272;2023-02-01T07:48:18;6.45;;;3.65;;
62610;SDS011;48683;48.084;17.272;2023-02-01T07:50:44;3.72;;;3.28;;
62610;SDS011;48683;48.084;17.272;2023-02-01T07:53:10;5.15;;;2.80;;
62610;SDS011;48683;48.084;17.272;2023-02-01T07:55:37;3.25;;;2.50;;
62610;SDS011;48683;48.084;17.272;2023-02-01T07:58:03;3.38;;;3.08;;
62610;SDS011;48683;48.084;17.272;2023-02-01T08:00:29;5.30;;;4.68;;
62610;SDS011;48683;48.084;17.272;2023-02-01T08:03:13;8.73;;;5.60;;
62610;SDS011;48683;48.084;17.272;2023-02-01T08:05:39;6.32;;;5.13;;
62610;SDS011;48683;48.084;17.272;2023-02-01T08:08:04;6.43;;;5.82;;
62610;SDS011;48683;48.084;17.272;2023-02-01T08:10:30;5.40;;;4.85;;
62610;SDS011;48683;48.084;17.272;2023-02-01T08:12:59;4.32;;;3.92;;
62610;SDS011;48683;48.084;17.272;2023-02-01T08:15:26;5.15;;;3.33;;
62610;SDS011;48683;48.084;17.272;2023-02-01T08:17:52;3.85;;;2.30;;
62610;SDS011;48683;48.084;17.272;2023-02-01T08:20:19;3.97;;;2.70;;
62610;SDS011;48683;48.084;17.272;2023-02-01T08:22:46;4.22;;;2.45;;
62610;SDS011;48683;48.084;17.272;2023-02-01T08:25:12;7.93;;;2.42;;
62610;SDS011;48683;48.084;17.272;2023-02-01T08:27:37;4.28;;;2.03;;
62610;SDS011;48683;48.084;17.272;2023-02-01T08:30:03;3.17;;;2.08;;
62610;SDS011;48683;48.084;17.272;2023-02-01T08:32:30;3.00;;;1.80;;
62610;SDS011;48683;48.084;17.272;2023-02-01T08:34:55;2.78;;;2.15;;
62610;SDS011;48683;48.084;17.272;2023-02-01T08:37:21;3.70;;;2.10;;
62610;SDS011;48683;48.084;17.272;2023-02-01T08:39:47;2.67;;;2.00;;
62610;SDS011;48683;48.084;17.272;2023-02-01T08:42:15;2.30;;;2.10;;
62610;SDS011;48683;48.084;17.272;2023-02-01T08:44:59;4.13;;;2.00;;
62610;SDS011;48683;48.084;17.272;2023-02-01T08:47:24;2.50;;;1.85;;
62610;SDS011;48683;48.084;17.272;2023-02-01T08:49:49;1.85;;;1.67;;
62610;SDS011;48683;48.084;17.272;2023-02-01T08:52:15;2.10;;;1.70;;
62610;SDS011;48683;48.084;17.272;2023-02-01T08:54:40;3.15;;;2.10;;
62610;SDS011;48683;48.084;17.272;2023-02-01T08:57:07;2.85;;;1.77;;
62610;SDS011;48683;48.084;17.272;2023-02-01T08:59:34;2.30;;;1.58;;
62610;SDS011;48683;48.084;17.272;2023-02-01T09:01:59;1.70;;;1.60;;
62610;SDS011;48683;48.084;17.272;2023-02-01T09:04:25;3.38;;;2.50;;
62610;SDS011;48683;48.084;17.272;2023-02-01T09:06:50;2.17;;;1.77;;
62610;SDS011;48683;48.084;17.272;2023-02-01T09:09:15;6.50;;;2.20;;
62610;SDS011;48683;48.084;17.272;2023-02-01T09:11:41;5.18;;;1.42;;
62610;SDS011;48683;48.084;17.272;2023-02-01T09:14:06;1.58;;;1.48;;
62610;SDS011;48683;48.084;17.272;2023-02-01T09:16:32;3.15;;;2.03;;
62610;SDS011;48683;48.084;17.272;2023-02-01T09:18:57;3.78;;;1.70;;
62610;SDS011;48683;48.084;17.272;2023-02-01T09:21:23;2.15;;;1.67;;
62610;SDS011;48683;48.084;17.272;2023-02-01T09:23:50;2.88;;;1.90;;
62610;SDS011;48683;48.084;17.272;2023-02-01T09:26:16;1.50;;;1.40;;
62610;SDS011;48683;48.084;17.272;2023-02-01T09:28:41;4.45;;;2.00;;
62610;SDS011;48683;48.084;17.272;2023-02-01T09:31:06;1.85;;;1.55;;
62610;SDS011;48683;48.084;17.272;2023-02-01T09:33:32;3.30;;;1.50;;
62610;SDS011;48683;48.084;17.272;2023-02-01T09:35:58;2.00;;;1.40;;
62610;SDS011;48683;48.084;17.272;2023-02-01T09:38:28;2.85;;;1.95;;
62610;SDS011;48683;48.084;17.272;2023-02-01T09:40:54;4.22;;;1.63;;
62610;SDS011;48683;48.084;17.272;2023-02-01T09:48:56;2.50;;;1.90;;
62610;SDS011;48683;48.084;17.272;2023-02-01T09:51:27;4.40;;;2.00;;
62610;SDS011;48683;48.084;17.272;2023-02-01T09:54:09;5.05;;;1.98;;
62610;SDS011;48683;48.084;17.272;2023-02-01T09:59:39;2.97;;;2.03;;
62610;SDS011;48683;48.084;17.272;2023-02-01T10:02:17;3.47;;;2.13;;
62610;SDS011;48683;48.084;17.272;2023-02-01T10:04:46;3.90;;;2.10;;
62610;SDS011;48683;48.084;17.272;2023-02-01T10:10:11;3.88;;;2.08;;
62610;SDS011;48683;48.084;17.272;2023-02-01T10:26:40;2.22;;;1.10;;
62610;SDS011;48683;48.084;17.272;2023-02-01T10:29:14;1.90;;;1.20;;
62610;SDS011;48683;48.084;17.272;2023-02-01T10:31:43;1.60;;;1.50;;
62610;SDS011;48683;48.084;17.272;2023-02-01T10:36:41;2.10;;;1.73;;
62610;SDS011;48683;48.084;17.272;2023-02-01T10:39:12;1.73;;;1.63;;
62610;SDS011;48683;48.084;17.272;2023-02-01T10:41:39;2.45;;;1.98;;
62610;SDS011;48683;48.084;17.272;2023-02-01T10:44:25;1.63;;;1.40;;
62610;SDS011;48683;48.084;17.272;2023-02-01T10:46:52;2.50;;;1.38;;
62610;SDS011;48683;48.084;17.272;2023-02-01T10:49:26;1.75;;;1.48;;
62610;SDS011;48683;48.084;17.272;2023-02-01T10:52:02;3.72;;;1.40;;
62610;SDS011;48683;48.084;17.272;2023-02-01T10:54:38;1.70;;;1.33;;
62610;SDS011;48683;48.084;17.272;2023-02-01T10:57:25;1.58;;;1.33;;
62610;SDS011;48683;48.084;17.272;2023-02-01T10:59:51;4.65;;;1.50;;
62610;SDS011;48683;48.084;17.272;2023-02-01T11:02:28;2.35;;;1.67;;
62610;SDS011;48683;48.084;17.272;2023-02-01T11:05:09;2.15;;;1.40;;
62610;SDS011;48683;48.084;17.272;2023-02-01T11:07:37;2.70;;;1.40;;
62610;SDS011;48683;48.084;17.272;2023-02-01T11:12:30;1.67;;;1.17;;
62610;SDS011;48683;48.084;17.272;2023-02-01T11:14:59;1.60;;;1.40;;
62610;SDS011;48683;48.084;17.272;2023-02-01T11:17:33;2.50;;;1.67;;
62610;SDS011;48683;48.084;17.272;2023-02-01T11:20:05;2.22;;;1.50;;
62610;SDS011;48683;48.084;17.272;2023-02-01T11:22:37;1.70;;;1.30;;
62610;SDS011;48683;48.084;17.272;2023-02-01T11:25:07;2.15;;;1.40;;
62610;SDS011;48683;48.084;17.272;2023-02-01T11:27:35;1.38;;;1.20;;
62610;SDS011;48683;48.084;17.272;2023-02-01T11:30:00;1.85;;;1.23;;
62610;SDS011;48683;48.084;17.272;2023-02-01T11:32:28;1.92;;;1.13;;
62610;SDS011;48683;48.084;17.272;2023-02-01T11:35:04;1.45;;;1.30;;
62610;SDS011;48683;48.084;17.272;2023-02-01T11:37:32;2.15;;;1.40;;
62610;SDS011;48683;48.084;17.272;2023-02-01T11:40:09;1.48;;;1.35;;
62610;SDS011;48683;48.084;17.272;2023-02-01T11:43:00;1.52;;;1.27;;
62610;SDS011;48683;48.084;17.272;2023-02-01T11:45:33;2.67;;;1.23;;
62610;SDS011;48683;48.084;17.272;2023-02-01T11:48:09;2.42;;;1.30;;
62610;SDS011;48683;48.084;17.272;2023-02-01T11:50:56;1.35;;;1.20;;
62610;SDS011;48683;48.084;17.272;2023-02-01T11:56:09;7.32;;;1.15;;
62610;SDS011;48683;48.084;17.272;2023-02-01T12:06:57;3.05;;;1.10;;
62610;SDS011;48683;48.084;17.272;2023-02-01T12:12:33;2.60;;;1.33;;
62610;SDS011;48683;48.084;17.272;2023-02-01T12:21:47;2.47;;;1.20;;
62610;SDS011;48683;48.084;17.272;2023-02-01T12:24:23;2.72;;;1.02;;
62610;SDS011;48683;48.084;17.272;2023-02-01T12:32:53;2.40;;;1.20;;
62610;SDS011;48683;48.084;17.272;2023-02-01T12:35:38;1.85;;;1.13;;
62610;SDS011;48683;48.084;17.272;2023-02-01T12:38:32;1.95;;;1.05;;
62610;SDS011;48683;48.084;17.272;2023-02-01T12:44:11;1.27;;;1.17;;
62610;SDS011;48683;48.084;17.272;2023-02-01T12:46:46;2.60;;;1.30;;
62610;SDS011;48683;48.084;17.272;2023-02-01T12:49:27;1.45;;;1.02;;
62610;SDS011;48683;48.084;17.272;2023-02-01T12:52:02;0.98;;;0.90;;
62610;SDS011;48683;48.084;17.272;2023-02-01T12:54:36;6.05;;;1.30;;
62610;SDS011;48683;48.084;17.272;2023-02-01T12:57:10;1.35;;;0.93;;
62610;SDS011;48683;48.084;17.272;2023-02-01T13:02:30;0.77;;;0.77;;
62610;SDS011;48683;48.084;17.272;2023-02-01T13:05:11;2.65;;;1.13;;
62610;SDS011;48683;48.084;17.272;2023-02-01T13:15:48;0.80;;;0.80;;
62610;SDS011;48683;48.084;17.272;2023-02-01T13:18:20;1.20;;;0.88;;
62610;SDS011;48683;48.084;17.272;2023-02-01T13:23:26;2.03;;;1.02;;
62610;SDS011;48683;48.084;17.272;2023-02-01T13:25:54;1.20;;;1.10;;
62610;SDS011;48683;48.084;17.272;2023-02-01T13:28:35;2.38;;;1.02;;
62610;SDS011;48683;48.084;17.272;2023-02-01T13:40:44;1.75;;;1.30;;
62610;SDS011;48683;48.084;17.272;2023-02-01T13:43:12;1.27;;;1.08;;
62610;SDS011;48683;48.084;17.272;2023-02-01T13:45:44;3.38;;;1.50;;
62610;SDS011;48683;48.084;17.272;2023-02-01T13:48:20;1.38;;;1.27;;
62610;SDS011;48683;48.084;17.272;2023-02-01T13:55:58;0.82;;;0.82;;
62610;SDS011;48683;48.084;17.272;2023-02-01T14:03:49;1.33;;;1.20;;
62610;SDS011;48683;48.084;17.272;2023-02-01T14:16:39;3.53;;;1.40;;
62610;SDS011;48683;48.084;17.272;2023-02-01T14:19:48;1.58;;;1.40;;
62610;SDS011;48683;48.084;17.272;2023-02-01T14:22:38;2.55;;;1.50;;
62610;SDS011;48683;48.084;17.272;2023-02-01T14:24:49;2.53;;;1.40;;
62610;SDS011;48683;48.084;17.272;2023-02-01T14:27:19;3.60;;;1.40;;
62610;SDS011;48683;48.084;17.272;2023-02-01T14:29:51;2.28;;;1.42;;
62610;SDS011;48683;48.084;17.272;2023-02-01T14:32:33;1.98;;;1.05;;
62610;SDS011;48683;48.084;17.272;2023-02-01T14:35:02;2.55;;;1.33;;
62610;SDS011;48683;48.084;17.272;2023-02-01T14:37:32;2.65;;;1.30;;
62610;SDS011;48683;48.084;17.272;2023-02-01T14:40:01;2.65;;;1.80;;
62610;SDS011;48683;48.084;17.272;2023-02-01T14:42:43;2.55;;;2.35;;
62610;SDS011;48683;48.084;17.272;2023-02-01T14:47:43;2.17;;;1.50;;
62610;SDS011;48683;48.084;17.272;2023-02-01T14:50:24;4.40;;;1.80;;
62610;SDS011;48683;48.084;17.272;2023-02-01T14:53:05;2.70;;;1.40;;
62610;SDS011;48683;48.084;17.272;2023-02-01T14:55:44;2.53;;;2.28;;
62610;SDS011;48683;48.084;17.272;2023-02-01T15:01:20;3.17;;;2.67;;
62610;SDS011;48683;48.084;17.272;2023-02-01T15:06:38;2.75;;;2.20;;
62610;SDS011;48683;48.084;17.272;2023-02-01T15:14:26;3.42;;;1.33;;
62610;SDS011;48683;48.084;17.272;2023-02-01T15:16:53;1.77;;;1.33;;
62610;SDS011;48683;48.084;17.272;2023-02-01T15:19:20;2.17;;;1.20;;
62610;SDS011;48683;48.084;17.272;2023-02-01T15:21:48;1.70;;;1.33;;
62610;SDS011;48683;48.084;17.272;2023-02-01T15:26:46;4.63;;;1.67;;
62610;SDS011;48683;48.084;17.272;2023-02-01T15:29:13;10.82;;;4.82;;
62610;SDS011;48683;48.084;17.272;2023-02-01T15:31:40;3.33;;;1.70;;
62610;SDS011;48683;48.084;17.272;2023-02-01T15:34:07;2.20;;;1.70;;
62610;SDS011;48683;48.084;17.272;2023-02-01T15:36:33;6.28;;;1.60;;
62610;SDS011;48683;48.084;17.272;2023-02-01T15:41:54;1.90;;;1.20;;
62610;SDS011;48683;48.084;17.272;2023-02-01T15:46:55;2.15;;;1.30;;
62610;SDS011;48683;48.084;17.272;2023-02-01T15:51:59;3.25;;;1.88;;
62610;SDS011;48683;48.084;17.272;2023-02-01T15:54:27;3.90;;;1.40;;
62610;SDS011;48683;48.084;17.272;2023-02-01T15:56:56;2.35;;;1.40;;
62610;SDS011;48683;48.084;17.272;2023-02-01T15:59:25;1.20;;;1.00;;
62610;SDS011;48683;48.084;17.272;2023-02-01T16:01:56;3.53;;;1.40;;
62610;SDS011;48683;48.084;17.272;2023-02-01T16:06:55;3.38;;;1.50;;
62610;SDS011;48683;48.084;17.272;2023-02-01T16:09:48;2.13;;;1.40;;
62610;SDS011;48683;48.084;17.272;2023-02-01T16:12:22;3.08;;;1.65;;
62610;SDS011;48683;48.084;17.272;2023-02-01T16:15:00;1.92;;;0.98;;
62610;SDS011;48683;48.084;17.272;2023-02-01T16:17:26;1.65;;;0.90;;
62610;SDS011;48683;48.084;17.272;2023-02-01T16:19:52;1.05;;;0.80;;
62610;SDS011;48683;48.084;17.272;2023-02-01T16:22:17;1.00;;;0.75;;
62610;SDS011;48683;48.084;17.272;2023-02-01T16:24:42;0.90;;;0.70;;
62610;SDS011;48683;48.084;17.272;2023-02-01T16:27:08;1.27;;;0.73;;
62610;SDS011;48683;48.084;17.272;2023-02-01T16:29:33;0.95;;;0.80;;
62610;SDS011;48683;48.084;17.272;2023-02-01T16:31:59;0.52;;;0.52;;
62610;SDS011;48683;48.084;17.272;2023-02-01T16:34:24;1.00;;;0.90;;
62610;SDS011;48683;48.084;17.272;2023-02-01T16:36:50;0.70;;;0.68;;
62610;SDS011;48683;48.084;17.272;2023-02-01T16:39:17;2.03;;;0.80;;
62610;SDS011;48683;48.084;17.272;2023-02-01T16:41:43;1.02;;;0.90;;
62610;SDS011;48683;48.084;17.272;2023-02-01T16:44:10;1.10;;;1.00;;
62610;SDS011;48683;48.084;17.272;2023-02-01T16:46:38;1.08;;;1.08;;
62610;SDS011;48683;48.084;17.272;2023-02-01T16:49:05;1.00;;;0.80;;
62610;SDS011;48683;48.084;17.272;2023-02-01T16:51:40;5.43;;;2.42;;
62610;SDS011;48683;48.084;17.272;2023-02-01T16:54:07;3.15;;;1.85;;
62610;SDS011;48683;48.084;17.272;2023-02-01T16:56:33;3.28;;;1.60;;
62610;SDS011;48683;48.084;17.272;2023-02-01T16:59:00;2.20;;;1.50;;
62610;SDS011;48683;48.084;17.272;2023-02-01T17:01:26;2.67;;;2.17;;
62610;SDS011;48683;48.084;17.272;2023-02-01T17:03:52;1.30;;;1.05;;
62610;SDS011;48683;48.084;17.272;2023-02-01T17:06:21;1.88;;;1.20;;
62610;SDS011;48683;48.084;17.272;2023-02-01T17:08:55;1.88;;;1.13;;
62610;SDS011;48683;48.084;17.272;2023-02-01T17:11:25;2.75;;;1.20;;
62610;SDS011;48683;48.084;17.272;2023-02-01T17:13:51;2.95;;;1.60;;
62610;SDS011;48683;48.084;17.272;2023-02-01T17:18:42;2.83;;;1.80;;
62610;SDS011;48683;48.084;17.272;2023-02-01T17:21:08;2.22;;;1.02;;
62610;SDS011;48683;48.084;17.272;2023-02-01T17:23:35;2.55;;;1.15;;
62610;SDS011;48683;48.084;17.272;2023-02-01T17:26:00;2.58;;;1.38;;
62610;SDS011;48683;48.084;17.272;2023-02-01T17:28:27;4.10;;;1.05;;
62610;SDS011;48683;48.084;17.272;2023-02-01T17:30:53;2.33;;;1.25;;
62610;SDS011;48683;48.084;17.272;2023-02-01T17:33:26;2.40;;;1.40;;
62610;SDS011;48683;48.084;17.272;2023-02-01T17:35:55;5.55;;;3.28;;